sensor_id;sensor_type;location;lat;lon;timestamp;temperature;humidity
32293;DHT22;43233;48.608;8.838;2023-07-31T00:01:55;15.40;63.60
32293;DHT22;43233;48.608;8.838;2023-07-31T00:04:20;15.30;63.80
32293;DHT22;43233;48.608;8.838;2023-07-31T00:06:46;15.20;63.90
32293;DHT22;43233;48.608;8.838;2023-07-31T00:09:12;15.20;64.20
32293;DHT22;43233;48.608;8.838;2023-07-31T00:11:37;15.20;64.30
32293;DHT22;43233;48.608;8.838;2023-07-31T00:14:03;15.20;64.40
32293;DHT22;43233;48.608;8.838;2023-07-31T00:16:29;15.20;64.40
32293;DHT22;43233;48.608;8.838;2023-07-31T00:18:55;15.20;64.40
32293;DHT22;43233;48.608;8.838;2023-07-31T00:21:20;15.10;64.70
32293;DHT22;43233;48.608;8.838;2023-07-31T00:23:46;15.10;64.70
32293;DHT22;43233;48.608;8.838;2023-07-31T00:26:11;15.10;64.50
32293;DHT22;43233;48.608;8.838;2023-07-31T00:28:37;15.10;64.50
32293;DHT22;43233;48.608;8.838;2023-07-31T00:31:03;15.10;64.60
32293;DHT22;43233;48.608;8.838;2023-07-31T00:33:31;15.10;64.50
32293;DHT22;43233;48.608;8.838;2023-07-31T00:35:56;15.10;64.70
32293;DHT22;43233;48.608;8.838;2023-07-31T00:38:22;15.10;64.60
32293;DHT22;43233;48.608;8.838;2023-07-31T00:40:48;15.10;64.50
32293;DHT22;43233;48.608;8.838;2023-07-31T00:43:13;15.10;64.70
32293;DHT22;43233;48.608;8.838;2023-07-31T00:45:39;15.10;64.80
32293;DHT22;43233;48.608;8.838;2023-07-31T00:48:05;15.00;65.00
32293;DHT22;43233;48.608;8.838;2023-07-31T00:50:31;15.00;65.60
32293;DHT22;43233;48.608;8.838;2023-07-31T00:52:58;14.90;65.90
32293;DHT22;43233;48.608;8.838;2023-07-31T00:55:24;14.90;66.00
32293;DHT22;43233;48.608;8.838;2023-07-31T00:57:50;14.90;66.00
32293;DHT22;43233;48.608;8.838;2023-07-31T01:00:18;14.80;66.20
32293;DHT22;43233;48.608;8.838;2023-07-31T01:02:44;14.80;66.10
32293;DHT22;43233;48.608;8.838;2023-07-31T01:05:09;14.80;67.00
32293;DHT22;43233;48.608;8.838;2023-07-31T01:07:52;14.80;66.70
32293;DHT22;43233;48.608;8.838;2023-07-31T01:10:27;14.70;67.00
32293;DHT22;43233;48.608;8.838;2023-07-31T01:12:57;14.70;66.90
32293;DHT22;43233;48.608;8.838;2023-07-31T01:15:23;14.60;67.00
32293;DHT22;43233;48.608;8.838;2023-07-31T01:17:49;14.50;67.30
32293;DHT22;43233;48.608;8.838;2023-07-31T01:20:21;14.40;67.70
32293;DHT22;43233;48.608;8.838;2023-07-31T01:26:00;14.30;68.90
32293;DHT22;43233;48.608;8.838;2023-07-31T01:28:44;14.30;69.20
32293;DHT22;43233;48.608;8.838;2023-07-31T01:31:17;14.20;69.40
32293;DHT22;43233;48.608;8.838;2023-07-31T01:33:43;14.20;69.70
32293;DHT22;43233;48.608;8.838;2023-07-31T01:36:10;14.20;69.70
32293;DHT22;43233;48.608;8.838;2023-07-31T01:38:36;14.20;69.90
32293;DHT22;43233;48.608;8.838;2023-07-31T01:41:02;14.10;70.20
32293;DHT22;43233;48.608;8.838;2023-07-31T01:43:27;14.10;70.40
32293;DHT22;43233;48.608;8.838;2023-07-31T01:45:53;14.10;70.50
32293;DHT22;43233;48.608;8.838;2023-07-31T01:48:19;14.10;70.50
32293;DHT22;43233;48.608;8.838;2023-07-31T01:50:45;14.00;70.50
32293;DHT22;43233;48.608;8.838;2023-07-31T01:53:10;14.00;70.80
32293;DHT22;43233;48.608;8.838;2023-07-31T01:55:37;13.90;71.10
32293;DHT22;43233;48.608;8.838;2023-07-31T01:58:03;13.90;71.40
32293;DHT22;43233;48.608;8.838;2023-07-31T02:00:28;13.90;71.40
32293;DHT22;43233;48.608;8.838;2023-07-31T02:02:54;13.90;71.10
32293;DHT22;43233;48.608;8.838;2023-07-31T02:05:19;13.90;70.80
32293;DHT22;43233;48.608;8.838;2023-07-31T02:07:45;13.90;70.50
32293;DHT22;43233;48.608;8.838;2023-07-31T02:10:11;13.90;70.50
32293;DHT22;43233;48.608;8.838;2023-07-31T02:12:36;13.90;70.60
32293;DHT22;43233;48.608;8.838;2023-07-31T02:15:02;13.90;70.60
32293;DHT22;43233;48.608;8.838;2023-07-31T02:17:28;13.90;70.50
32293;DHT22;43233;48.608;8.838;2023-07-31T02:19:54;13.90;70.40
32293;DHT22;43233;48.608;8.838;2023-07-31T02:22:20;13.90;70.60
32293;DHT22;43233;48.608;8.838;2023-07-31T02:24:46;13.90;70.90
32293;DHT22;43233;48.608;8.838;2023-07-31T02:27:11;13.90;71.20
32293;DHT22;43233;48.608;8.838;2023-07-31T02:29:37;13.90;71.40
32293;DHT22;43233;48.608;8.838;2023-07-31T02:32:03;13.80;71.50
32293;DHT22;43233;48.608;8.838;2023-07-31T02:34:29;13.70;71.80
32293;DHT22;43233;48.608;8.838;2023-07-31T02:36:54;13.80;71.80
32293;DHT22;43233;48.608;8.838;2023-07-31T02:39:20;13.80;71.70
32293;DHT22;43233;48.608;8.838;2023-07-31T02:41:46;13.80;71.50
32293;DHT22;43233;48.608;8.838;2023-07-31T02:44:11;13.80;71.50
32293;DHT22;43233;48.608;8.838;2023-07-31T02:46:39;13.70;71.50
32293;DHT22;43233;48.608;8.838;2023-07-31T02:49:05;13.70;71.50
32293;DHT22;43233;48.608;8.838;2023-07-31T02:51:31;13.70;71.60
32293;DHT22;43233;48.608;8.838;2023-07-31T02:53:56;13.70;71.60
32293;DHT22;43233;48.608;8.838;2023-07-31T02:56:22;13.70;71.60
32293;DHT22;43233;48.608;8.838;2023-07-31T02:58:48;13.70;71.60
32293;DHT22;43233;48.608;8.838;2023-07-31T03:01:13;13.70;71.80
32293;DHT22;43233;48.608;8.838;2023-07-31T03:03:41;13.70;72.00
32293;DHT22;43233;48.608;8.838;2023-07-31T03:06:07;13.60;72.20
32293;DHT22;43233;48.608;8.838;2023-07-31T03:08:32;13.60;72.30
32293;DHT22;43233;48.608;8.838;2023-07-31T03:10:58;13.60;72.30
32293;DHT22;43233;48.608;8.838;2023-07-31T03:13:23;13.60;72.20
32293;DHT22;43233;48.608;8.838;2023-07-31T03:15:49;13.60;72.90
32293;DHT22;43233;48.608;8.838;2023-07-31T03:18:15;13.70;71.50
32293;DHT22;43233;48.608;8.838;2023-07-31T03:20:44;13.80;70.80
32293;DHT22;43233;48.608;8.838;2023-07-31T03:23:10;13.90;70.60
32293;DHT22;43233;48.608;8.838;2023-07-31T03:25:35;14.00;69.60
32293;DHT22;43233;48.608;8.838;2023-07-31T03:28:01;14.10;69.40
32293;DHT22;43233;48.608;8.838;2023-07-31T03:30:27;14.20;69.30
32293;DHT22;43233;48.608;8.838;2023-07-31T03:32:52;14.20;69.00
32293;DHT22;43233;48.608;8.838;2023-07-31T03:35:18;14.30;68.80
32293;DHT22;43233;48.608;8.838;2023-07-31T03:37:44;14.40;68.90
32293;DHT22;43233;48.608;8.838;2023-07-31T03:40:10;14.40;68.90
32293;DHT22;43233;48.608;8.838;2023-07-31T03:42:36;14.50;69.00
32293;DHT22;43233;48.608;8.838;2023-07-31T03:45:01;14.50;68.80
32293;DHT22;43233;48.608;8.838;2023-07-31T03:47:27;14.60;68.70
32293;DHT22;43233;48.608;8.838;2023-07-31T03:49:52;14.60;68.30
32293;DHT22;43233;48.608;8.838;2023-07-31T03:52:18;14.70;68.10
32293;DHT22;43233;48.608;8.838;2023-07-31T03:54:44;14.70;68.00
32293;DHT22;43233;48.608;8.838;2023-07-31T03:57:12;14.80;67.70
32293;DHT22;43233;48.608;8.838;2023-07-31T03:59:38;14.80;67.50
32293;DHT22;43233;48.608;8.838;2023-07-31T04:02:06;14.80;67.50
32293;DHT22;43233;48.608;8.838;2023-07-31T04:04:32;14.80;67.20
32293;DHT22;43233;48.608;8.838;2023-07-31T04:06:58;14.90;67.40
32293;DHT22;43233;48.608;8.838;2023-07-31T04:09:23;14.90;67.00
32293;DHT22;43233;48.608;8.838;2023-07-31T04:11:49;15.00;66.90
32293;DHT22;43233;48.608;8.838;2023-07-31T04:14:15;15.00;66.80
32293;DHT22;43233;48.608;8.838;2023-07-31T04:16:40;15.00;66.20
32293;DHT22;43233;48.608;8.838;2023-07-31T04:19:06;15.00;66.30
32293;DHT22;43233;48.608;8.838;2023-07-31T04:21:32;15.00;66.20
32293;DHT22;43233;48.608;8.838;2023-07-31T04:23:58;15.10;66.30
32293;DHT22;43233;48.608;8.838;2023-07-31T04:26:23;15.10;66.30
32293;DHT22;43233;48.608;8.838;2023-07-31T04:28:49;15.00;66.40
32293;DHT22;43233;48.608;8.838;2023-07-31T04:31:15;15.00;66.40
32293;DHT22;43233;48.608;8.838;2023-07-31T04:33:41;15.00;66.20
32293;DHT22;43233;48.608;8.838;2023-07-31T04:36:06;15.00;66.50
32293;DHT22;43233;48.608;8.838;2023-07-31T04:38:32;15.00;66.70
32293;DHT22;43233;48.608;8.838;2023-07-31T04:40:58;14.90;66.70
32293;DHT22;43233;48.608;8.838;2023-07-31T04:43:23;14.90;67.10
32293;DHT22;43233;48.608;8.838;2023-07-31T04:45:49;14.80;67.40
32293;DHT22;43233;48.608;8.838;2023-07-31T04:48:15;14.80;67.50
32293;DHT22;43233;48.608;8.838;2023-07-31T04:50:41;14.80;67.30
32293;DHT22;43233;48.608;8.838;2023-07-31T04:53:07;14.80;67.40
32293;DHT22;43233;48.608;8.838;2023-07-31T04:55:33;14.90;67.10
32293;DHT22;43233;48.608;8.838;2023-07-31T04:57:59;14.90;67.10
32293;DHT22;43233;48.608;8.838;2023-07-31T05:00:25;15.00;67.10
32293;DHT22;43233;48.608;8.838;2023-07-31T05:02:51;15.00;66.90
32293;DHT22;43233;48.608;8.838;2023-07-31T05:05:16;14.90;67.10
32293;DHT22;43233;48.608;8.838;2023-07-31T05:07:42;14.90;67.30
32293;DHT22;43233;48.608;8.838;2023-07-31T05:10:08;15.00;67.00
32293;DHT22;43233;48.608;8.838;2023-07-31T05:12:34;15.00;66.80
32293;DHT22;43233;48.608;8.838;2023-07-31T05:14:59;15.00;67.10
32293;DHT22;43233;48.608;8.838;2023-07-31T05:17:25;14.90;67.40
32293;DHT22;43233;48.608;8.838;2023-07-31T05:19:51;15.00;67.20
32293;DHT22;43233;48.608;8.838;2023-07-31T05:22:16;15.00;67.00
32293;DHT22;43233;48.608;8.838;2023-07-31T05:24:42;15.10;66.70
32293;DHT22;43233;48.608;8.838;2023-07-31T05:27:08;15.20;67.10
32293;DHT22;43233;48.608;8.838;2023-07-31T05:29:35;15.20;66.90
32293;DHT22;43233;48.608;8.838;2023-07-31T05:32:01;15.30;66.30
32293;DHT22;43233;48.608;8.838;2023-07-31T05:34:26;15.30;67.10
32293;DHT22;43233;48.608;8.838;2023-07-31T05:36:52;15.40;66.30
32293;DHT22;43233;48.608;8.838;2023-07-31T05:39:18;15.40;66.80
32293;DHT22;43233;48.608;8.838;2023-07-31T05:41:45;15.50;66.70
32293;DHT22;43233;48.608;8.838;2023-07-31T05:44:11;15.60;65.90
32293;DHT22;43233;48.608;8.838;2023-07-31T05:46:36;15.60;65.30
32293;DHT22;43233;48.608;8.838;2023-07-31T05:49:02;15.60;65.40
32293;DHT22;43233;48.608;8.838;2023-07-31T05:51:28;15.60;64.90
32293;DHT22;43233;48.608;8.838;2023-07-31T05:53:53;15.60;65.40
32293;DHT22;43233;48.608;8.838;2023-07-31T05:56:19;15.70;65.10
32293;DHT22;43233;48.608;8.838;2023-07-31T05:58:45;15.70;64.10
32293;DHT22;43233;48.608;8.838;2023-07-31T06:01:10;15.70;64.00
32293;DHT22;43233;48.608;8.838;2023-07-31T06:03:36;15.70;64.20
32293;DHT22;43233;48.608;8.838;2023-07-31T06:06:02;15.70;64.80
32293;DHT22;43233;48.608;8.838;2023-07-31T06:08:27;15.70;65.60
32293;DHT22;43233;48.608;8.838;2023-07-31T06:10:53;15.70;65.10
32293;DHT22;43233;48.608;8.838;2023-07-31T06:13:19;15.70;65.40
32293;DHT22;43233;48.608;8.838;2023-07-31T06:15:44;15.80;65.40
32293;DHT22;43233;48.608;8.838;2023-07-31T06:18:10;15.90;65.40
32293;DHT22;43233;48.608;8.838;2023-07-31T06:20:36;16.00;65.50
32293;DHT22;43233;48.608;8.838;2023-07-31T06:23:01;16.00;64.20
32293;DHT22;43233;48.608;8.838;2023-07-31T06:25:28;16.10;63.90
32293;DHT22;43233;48.608;8.838;2023-07-31T06:27:53;16.20;63.10
32293;DHT22;43233;48.608;8.838;2023-07-31T06:30:19;16.20;63.10
32293;DHT22;43233;48.608;8.838;2023-07-31T06:32:44;16.30;62.30
32293;DHT22;43233;48.608;8.838;2023-07-31T06:35:10;16.30;62.00
32293;DHT22;43233;48.608;8.838;2023-07-31T06:37:36;16.30;62.00
32293;DHT22;43233;48.608;8.838;2023-07-31T06:40:01;16.40;62.60
32293;DHT22;43233;48.608;8.838;2023-07-31T06:42:27;16.40;61.70
32293;DHT22;43233;48.608;8.838;2023-07-31T06:44:53;16.50;61.60
32293;DHT22;43233;48.608;8.838;2023-07-31T06:47:18;16.60;60.70
32293;DHT22;43233;48.608;8.838;2023-07-31T06:49:45;16.60;60.60
32293;DHT22;43233;48.608;8.838;2023-07-31T06:52:10;16.70;60.20
32293;DHT22;43233;48.608;8.838;2023-07-31T06:54:36;16.70;59.60
32293;DHT22;43233;48.608;8.838;2023-07-31T06:57:02;16.60;59.90
32293;DHT22;43233;48.608;8.838;2023-07-31T06:59:29;16.60;59.30
32293;DHT22;43233;48.608;8.838;2023-07-31T07:01:54;16.70;59.20
32293;DHT22;43233;48.608;8.838;2023-07-31T07:04:20;16.70;59.00
32293;DHT22;43233;48.608;8.838;2023-07-31T07:06:46;16.70;59.70
32293;DHT22;43233;48.608;8.838;2023-07-31T07:09:11;16.80;59.70
32293;DHT22;43233;48.608;8.838;2023-07-31T07:11:37;16.90;60.00
32293;DHT22;43233;48.608;8.838;2023-07-31T07:14:02;16.90;59.90
32293;DHT22;43233;48.608;8.838;2023-07-31T07:16:28;16.90;59.20
32293;DHT22;43233;48.608;8.838;2023-07-31T07:18:54;17.00;59.10
32293;DHT22;43233;48.608;8.838;2023-07-31T07:21:20;17.00;59.00
32293;DHT22;43233;48.608;8.838;2023-07-31T07:23:45;17.00;58.90
32293;DHT22;43233;48.608;8.838;2023-07-31T07:26:11;17.00;58.70
32293;DHT22;43233;48.608;8.838;2023-07-31T07:28:37;17.00;58.60
32293;DHT22;43233;48.608;8.838;2023-07-31T07:31:03;17.00;59.40
32293;DHT22;43233;48.608;8.838;2023-07-31T07:33:28;17.10;58.20
32293;DHT22;43233;48.608;8.838;2023-07-31T07:35:54;17.00;58.30
32293;DHT22;43233;48.608;8.838;2023-07-31T07:38:20;17.00;59.30
32293;DHT22;43233;48.608;8.838;2023-07-31T07:40:46;17.00;58.40
32293;DHT22;43233;48.608;8.838;2023-07-31T07:43:15;17.10;57.10
32293;DHT22;43233;48.608;8.838;2023-07-31T07:45:41;17.00;57.20
32293;DHT22;43233;48.608;8.838;2023-07-31T07:48:07;17.00;58.10
32293;DHT22;43233;48.608;8.838;2023-07-31T07:50:32;17.10;59.00
32293;DHT22;43233;48.608;8.838;2023-07-31T07:52:58;17.10;58.00
32293;DHT22;43233;48.608;8.838;2023-07-31T07:55:24;17.20;57.30
32293;DHT22;43233;48.608;8.838;2023-07-31T07:57:49;17.30;57.20
32293;DHT22;43233;48.608;8.838;2023-07-31T08:00:16;17.30;57.40
32293;DHT22;43233;48.608;8.838;2023-07-31T08:02:42;17.40;57.40
32293;DHT22;43233;48.608;8.838;2023-07-31T08:05:08;17.50;57.80
32293;DHT22;43233;48.608;8.838;2023-07-31T08:07:34;17.60;56.80
32293;DHT22;43233;48.608;8.838;2023-07-31T08:10:00;17.70;56.90
32293;DHT22;43233;48.608;8.838;2023-07-31T08:12:25;17.70;56.40
32293;DHT22;43233;48.608;8.838;2023-07-31T08:14:51;17.90;56.40
32293;DHT22;43233;48.608;8.838;2023-07-31T08:17:17;18.00;54.20
32293;DHT22;43233;48.608;8.838;2023-07-31T08:19:43;18.10;55.00
32293;DHT22;43233;48.608;8.838;2023-07-31T08:22:09;18.10;53.30
32293;DHT22;43233;48.608;8.838;2023-07-31T08:24:35;18.20;51.50
32293;DHT22;43233;48.608;8.838;2023-07-31T08:27:00;18.20;51.40
32293;DHT22;43233;48.608;8.838;2023-07-31T08:29:26;18.20;50.10
32293;DHT22;43233;48.608;8.838;2023-07-31T08:31:52;18.20;50.60
32293;DHT22;43233;48.608;8.838;2023-07-31T08:34:17;18.20;50.60
32293;DHT22;43233;48.608;8.838;2023-07-31T08:36:43;18.20;51.10
32293;DHT22;43233;48.608;8.838;2023-07-31T08:39:09;18.20;51.30
32293;DHT22;43233;48.608;8.838;2023-07-31T08:41:38;18.10;51.30
32293;DHT22;43233;48.608;8.838;2023-07-31T08:44:07;18.20;51.50
32293;DHT22;43233;48.608;8.838;2023-07-31T08:46:34;18.20;51.30
32293;DHT22;43233;48.608;8.838;2023-07-31T08:49:00;18.30;51.00
32293;DHT22;43233;48.608;8.838;2023-07-31T08:51:28;18.30;51.00
32293;DHT22;43233;48.608;8.838;2023-07-31T08:53:55;18.30;51.30
32293;DHT22;43233;48.608;8.838;2023-07-31T08:56:20;18.30;50.00
32293;DHT22;43233;48.608;8.838;2023-07-31T08:58:47;18.30;50.40
32293;DHT22;43233;48.608;8.838;2023-07-31T09:01:13;18.20;51.90
32293;DHT22;43233;48.608;8.838;2023-07-31T09:03:40;18.20;50.50
32293;DHT22;43233;48.608;8.838;2023-07-31T09:06:07;18.20;51.90
32293;DHT22;43233;48.608;8.838;2023-07-31T09:08:33;18.30;51.30
32293;DHT22;43233;48.608;8.838;2023-07-31T09:11:00;18.40;52.00
32293;DHT22;43233;48.608;8.838;2023-07-31T09:13:31;18.50;51.00
32293;DHT22;43233;48.608;8.838;2023-07-31T09:15:57;18.60;50.70
32293;DHT22;43233;48.608;8.838;2023-07-31T09:18:22;18.60;51.10
32293;DHT22;43233;48.608;8.838;2023-07-31T09:21:04;18.60;51.30
32293;DHT22;43233;48.608;8.838;2023-07-31T09:23:44;18.60;50.40
32293;DHT22;43233;48.608;8.838;2023-07-31T09:26:10;18.60;50.70
32293;DHT22;43233;48.608;8.838;2023-07-31T09:28:36;18.60;51.50
32293;DHT22;43233;48.608;8.838;2023-07-31T09:31:02;18.70;50.00
32293;DHT22;43233;48.608;8.838;2023-07-31T09:33:28;18.80;49.40
32293;DHT22;43233;48.608;8.838;2023-07-31T09:35:53;18.80;49.10
32293;DHT22;43233;48.608;8.838;2023-07-31T09:38:19;18.80;49.40
32293;DHT22;43233;48.608;8.838;2023-07-31T09:40:49;18.80;47.90
32293;DHT22;43233;48.608;8.838;2023-07-31T09:43:21;18.80;48.00
32293;DHT22;43233;48.608;8.838;2023-07-31T09:45:48;18.90;48.10
32293;DHT22;43233;48.608;8.838;2023-07-31T09:48:15;18.90;49.20
32293;DHT22;43233;48.608;8.838;2023-07-31T09:50:43;18.90;48.10
32293;DHT22;43233;48.608;8.838;2023-07-31T09:53:09;19.00;47.30
32293;DHT22;43233;48.608;8.838;2023-07-31T09:55:36;19.10;47.50
32293;DHT22;43233;48.608;8.838;2023-07-31T09:58:07;19.30;47.00
32293;DHT22;43233;48.608;8.838;2023-07-31T10:00:34;19.40;47.00
32293;DHT22;43233;48.608;8.838;2023-07-31T10:03:01;19.40;47.60
32293;DHT22;43233;48.608;8.838;2023-07-31T10:05:42;19.60;46.60
32293;DHT22;43233;48.608;8.838;2023-07-31T10:08:09;19.70;46.30
32293;DHT22;43233;48.608;8.838;2023-07-31T10:10:36;19.80;46.80
32293;DHT22;43233;48.608;8.838;2023-07-31T10:13:04;20.00;44.70
32293;DHT22;43233;48.608;8.838;2023-07-31T10:15:31;20.00;45.60
32293;DHT22;43233;48.608;8.838;2023-07-31T10:17:58;20.10;45.30
32293;DHT22;43233;48.608;8.838;2023-07-31T10:20:24;20.30;44.70
32293;DHT22;43233;48.608;8.838;2023-07-31T10:22:51;20.30;43.70
32293;DHT22;43233;48.608;8.838;2023-07-31T10:25:18;20.30;43.70
32293;DHT22;43233;48.608;8.838;2023-07-31T10:27:45;20.40;45.00
32293;DHT22;43233;48.608;8.838;2023-07-31T10:30:15;20.50;44.50
32293;DHT22;43233;48.608;8.838;2023-07-31T10:32:43;20.60;41.90
32293;DHT22;43233;48.608;8.838;2023-07-31T10:35:09;20.60;42.90
32293;DHT22;43233;48.608;8.838;2023-07-31T10:37:37;20.60;44.50
32293;DHT22;43233;48.608;8.838;2023-07-31T10:40:05;20.70;44.00
32293;DHT22;43233;48.608;8.838;2023-07-31T10:42:36;20.80;43.10
32293;DHT22;43233;48.608;8.838;2023-07-31T10:45:08;20.90;43.40
32293;DHT22;43233;48.608;8.838;2023-07-31T10:47:45;21.10;43.30
32293;DHT22;43233;48.608;8.838;2023-07-31T10:50:21;21.20;41.50
32293;DHT22;43233;48.608;8.838;2023-07-31T10:52:51;21.30;42.30
32293;DHT22;43233;48.608;8.838;2023-07-31T10:58:07;21.20;40.50
32293;DHT22;43233;48.608;8.838;2023-07-31T11:00:33;21.10;41.10
32293;DHT22;43233;48.608;8.838;2023-07-31T11:06:01;21.10;39.60
32293;DHT22;43233;48.608;8.838;2023-07-31T11:08:38;21.00;39.90
32293;DHT22;43233;48.608;8.838;2023-07-31T11:11:08;20.80;40.50
32293;DHT22;43233;48.608;8.838;2023-07-31T11:13:46;20.80;41.20
32293;DHT22;43233;48.608;8.838;2023-07-31T11:16:16;20.70;41.30
32293;DHT22;43233;48.608;8.838;2023-07-31T11:18:43;20.80;42.10
32293;DHT22;43233;48.608;8.838;2023-07-31T11:21:14;20.60;41.80
32293;DHT22;43233;48.608;8.838;2023-07-31T11:23:40;20.70;42.70
32293;DHT22;43233;48.608;8.838;2023-07-31T11:26:07;20.60;42.00
32293;DHT22;43233;48.608;8.838;2023-07-31T11:28:34;20.60;41.90
32293;DHT22;43233;48.608;8.838;2023-07-31T11:31:01;20.70;42.90
32293;DHT22;43233;48.608;8.838;2023-07-31T11:33:28;20.80;42.20
32293;DHT22;43233;48.608;8.838;2023-07-31T11:35:53;20.60;41.90
32293;DHT22;43233;48.608;8.838;2023-07-31T11:40:53;20.50;43.80
32293;DHT22;43233;48.608;8.838;2023-07-31T11:43:20;20.50;43.50
32293;DHT22;43233;48.608;8.838;2023-07-31T11:45:50;20.40;43.10
32293;DHT22;43233;48.608;8.838;2023-07-31T11:48:23;20.50;43.80
32293;DHT22;43233;48.608;8.838;2023-07-31T11:50:51;20.50;43.00
32293;DHT22;43233;48.608;8.838;2023-07-31T11:53:21;20.40;43.00
32293;DHT22;43233;48.608;8.838;2023-07-31T11:55:48;20.50;43.20
32293;DHT22;43233;48.608;8.838;2023-07-31T11:58:15;20.50;43.50
32293;DHT22;43233;48.608;8.838;2023-07-31T12:00:41;20.40;45.50
32293;DHT22;43233;48.608;8.838;2023-07-31T12:03:07;20.50;46.40
32293;DHT22;43233;48.608;8.838;2023-07-31T12:05:33;20.50;48.10
32293;DHT22;43233;48.608;8.838;2023-07-31T12:07:59;20.40;47.60
32293;DHT22;43233;48.608;8.838;2023-07-31T12:10:30;20.30;47.70
32293;DHT22;43233;48.608;8.838;2023-07-31T12:15:44;20.30;49.20
32293;DHT22;43233;48.608;8.838;2023-07-31T12:18:13;20.40;47.60
32293;DHT22;43233;48.608;8.838;2023-07-31T12:20:44;20.60;48.00
32293;DHT22;43233;48.608;8.838;2023-07-31T12:23:18;20.70;47.30
32293;DHT22;43233;48.608;8.838;2023-07-31T12:25:44;20.90;46.10
32293;DHT22;43233;48.608;8.838;2023-07-31T12:28:10;21.00;46.20
32293;DHT22;43233;48.608;8.838;2023-07-31T12:30:40;21.10;43.90
32293;DHT22;43233;48.608;8.838;2023-07-31T12:33:12;21.20;43.00
32293;DHT22;43233;48.608;8.838;2023-07-31T12:35:38;21.20;42.90
32293;DHT22;43233;48.608;8.838;2023-07-31T12:38:05;21.30;43.30
32293;DHT22;43233;48.608;8.838;2023-07-31T12:40:32;21.40;43.90
32293;DHT22;43233;48.608;8.838;2023-07-31T12:43:00;21.60;42.90
32293;DHT22;43233;48.608;8.838;2023-07-31T12:45:26;21.70;42.10
32293;DHT22;43233;48.608;8.838;2023-07-31T12:47:52;21.90;41.30
32293;DHT22;43233;48.608;8.838;2023-07-31T12:50:18;22.00;43.10
32293;DHT22;43233;48.608;8.838;2023-07-31T12:52:43;22.10;42.60
32293;DHT22;43233;48.608;8.838;2023-07-31T12:55:09;22.10;43.10
32293;DHT22;43233;48.608;8.838;2023-07-31T12:57:36;22.20;42.80
32293;DHT22;43233;48.608;8.838;2023-07-31T13:00:02;22.20;42.30
32293;DHT22;43233;48.608;8.838;2023-07-31T13:02:28;22.30;42.00
32293;DHT22;43233;48.608;8.838;2023-07-31T13:04:54;22.30;42.40
32293;DHT22;43233;48.608;8.838;2023-07-31T13:07:22;22.40;41.10
32293;DHT22;43233;48.608;8.838;2023-07-31T13:09:48;22.40;42.10
32293;DHT22;43233;48.608;8.838;2023-07-31T13:12:13;22.30;42.20
32293;DHT22;43233;48.608;8.838;2023-07-31T13:14:39;22.20;40.00
32293;DHT22;43233;48.608;8.838;2023-07-31T13:17:05;22.10;41.40
32293;DHT22;43233;48.608;8.838;2023-07-31T13:19:30;22.00;41.50
32293;DHT22;43233;48.608;8.838;2023-07-31T13:21:56;22.00;41.70
32293;DHT22;43233;48.608;8.838;2023-07-31T13:24:22;22.00;42.10
32293;DHT22;43233;48.608;8.838;2023-07-31T13:26:47;22.00;41.80
32293;DHT22;43233;48.608;8.838;2023-07-31T13:29:13;22.10;43.40
32293;DHT22;43233;48.608;8.838;2023-07-31T13:31:38;22.20;40.30
32293;DHT22;43233;48.608;8.838;2023-07-31T13:34:04;22.20;40.30
32293;DHT22;43233;48.608;8.838;2023-07-31T13:36:30;22.20;38.90
32293;DHT22;43233;48.608;8.838;2023-07-31T13:38:55;22.10;37.50
32293;DHT22;43233;48.608;8.838;2023-07-31T13:41:27;22.10;38.30
32293;DHT22;43233;48.608;8.838;2023-07-31T13:43:53;22.00;38.10
32293;DHT22;43233;48.608;8.838;2023-07-31T13:46:18;22.00;39.40
32293;DHT22;43233;48.608;8.838;2023-07-31T13:48:44;21.90;39.90
32293;DHT22;43233;48.608;8.838;2023-07-31T13:51:09;21.90;39.50
32293;DHT22;43233;48.608;8.838;2023-07-31T13:53:35;21.80;38.00
32293;DHT22;43233;48.608;8.838;2023-07-31T13:56:01;21.70;38.50
32293;DHT22;43233;48.608;8.838;2023-07-31T13:58:26;21.70;38.30
32293;DHT22;43233;48.608;8.838;2023-07-31T14:00:52;21.50;38.70
32293;DHT22;43233;48.608;8.838;2023-07-31T14:03:17;21.50;38.50
32293;DHT22;43233;48.608;8.838;2023-07-31T14:05:43;21.50;38.80
32293;DHT22;43233;48.608;8.838;2023-07-31T14:08:09;21.40;39.40
32293;DHT22;43233;48.608;8.838;2023-07-31T14:10:34;21.50;39.30
32293;DHT22;43233;48.608;8.838;2023-07-31T14:13:00;21.50;39.10
32293;DHT22;43233;48.608;8.838;2023-07-31T14:15:26;21.50;39.50
32293;DHT22;43233;48.608;8.838;2023-07-31T14:17:51;21.50;40.10
32293;DHT22;43233;48.608;8.838;2023-07-31T14:20:17;21.50;39.30
32293;DHT22;43233;48.608;8.838;2023-07-31T14:22:43;21.70;40.20
32293;DHT22;43233;48.608;8.838;2023-07-31T14:25:08;21.70;38.40
32293;DHT22;43233;48.608;8.838;2023-07-31T14:27:36;21.80;39.30
32293;DHT22;43233;48.608;8.838;2023-07-31T14:30:02;21.80;39.60
32293;DHT22;43233;48.608;8.838;2023-07-31T14:32:28;21.90;39.80
32293;DHT22;43233;48.608;8.838;2023-07-31T14:34:53;22.10;39.70
32293;DHT22;43233;48.608;8.838;2023-07-31T14:37:20;22.10;38.40
32293;DHT22;43233;48.608;8.838;2023-07-31T14:39:45;22.20;38.80
32293;DHT22;43233;48.608;8.838;2023-07-31T14:42:11;22.20;38.70
32293;DHT22;43233;48.608;8.838;2023-07-31T14:44:37;22.20;38.70
32293;DHT22;43233;48.608;8.838;2023-07-31T14:47:02;22.20;38.50
32293;DHT22;43233;48.608;8.838;2023-07-31T14:49:28;22.30;38.60
32293;DHT22;43233;48.608;8.838;2023-07-31T14:51:54;22.30;38.00
32293;DHT22;43233;48.608;8.838;2023-07-31T14:54:20;22.20;39.20
32293;DHT22;43233;48.608;8.838;2023-07-31T14:56:45;22.10;39.90
32293;DHT22;43233;48.608;8.838;2023-07-31T14:59:11;22.10;38.10
32293;DHT22;43233;48.608;8.838;2023-07-31T15:01:37;22.00;39.30
32293;DHT22;43233;48.608;8.838;2023-07-31T15:04:03;22.00;39.40
32293;DHT22;43233;48.608;8.838;2023-07-31T15:06:29;21.90;40.30
32293;DHT22;43233;48.608;8.838;2023-07-31T15:08:55;21.90;40.70
32293;DHT22;43233;48.608;8.838;2023-07-31T15:11:20;21.80;40.00
32293;DHT22;43233;48.608;8.838;2023-07-31T15:13:46;21.70;39.90
32293;DHT22;43233;48.608;8.838;2023-07-31T15:16:12;21.60;39.80
32293;DHT22;43233;48.608;8.838;2023-07-31T15:18:38;21.60;38.90
32293;DHT22;43233;48.608;8.838;2023-07-31T15:21:04;21.50;40.60
32293;DHT22;43233;48.608;8.838;2023-07-31T15:23:32;21.60;39.20
32293;DHT22;43233;48.608;8.838;2023-07-31T15:25:57;21.60;41.10
32293;DHT22;43233;48.608;8.838;2023-07-31T15:28:23;21.50;40.60
32293;DHT22;43233;48.608;8.838;2023-07-31T15:30:49;21.50;39.70
32293;DHT22;43233;48.608;8.838;2023-07-31T15:33:15;21.50;40.70
32293;DHT22;43233;48.608;8.838;2023-07-31T15:35:41;21.50;41.00
32293;DHT22;43233;48.608;8.838;2023-07-31T15:38:07;21.60;41.00
32293;DHT22;43233;48.608;8.838;2023-07-31T15:40:33;21.60;40.80